sensor_id;sensor_type;location;lat;lon;timestamp;temperature;humidity
56428;DHT22;42331;53.578;9.760;2023-08-12T00:00:28;20.30;99.90
56428;DHT22;42331;53.578;9.760;2023-08-12T00:02:58;20.30;99.90
56428;DHT22;42331;53.578;9.760;2023-08-12T00:05:30;20.30;99.90
56428;DHT22;42331;53.578;9.760;2023-08-12T00:08:00;20.30;99.90
56428;DHT22;42331;53.578;9.760;2023-08-12T00:10:31;20.20;99.90
56428;DHT22;42331;53.578;9.760;2023-08-12T00:13:02;20.30;99.90
56428;DHT22;42331;53.578;9.760;2023-08-12T00:15:33;20.30;99.90
56428;DHT22;42331;53.578;9.760;2023-08-12T00:18:04;20.30;99.90
56428;DHT22;42331;53.578;9.760;2023-08-12T00:20:37;20.30;99.90
56428;DHT22;42331;53.578;9.760;2023-08-12T00:23:08;20.20;99.90
56428;DHT22;42331;53.578;9.760;2023-08-12T00:25:39;20.20;99.90
56428;DHT22;42331;53.578;9.760;2023-08-12T00:28:10;20.30;99.90
56428;DHT22;42331;53.578;9.760;2023-08-12T00:30:40;20.20;99.90
56428;DHT22;42331;53.578;9.760;2023-08-12T00:33:11;20.20;99.90
56428;DHT22;42331;53.578;9.760;2023-08-12T00:35:42;20.20;99.90
56428;DHT22;42331;53.578;9.760;2023-08-12T00:38:12;20.10;99.90
56428;DHT22;42331;53.578;9.760;2023-08-12T00:40:43;20.00;99.90
56428;DHT22;42331;53.578;9.760;2023-08-12T00:43:14;19.90;99.90
56428;DHT22;42331;53.578;9.760;2023-08-12T00:45:45;19.80;99.90
56428;DHT22;42331;53.578;9.760;2023-08-12T00:48:17;19.80;99.90
56428;DHT22;42331;53.578;9.760;2023-08-12T00:50:48;19.70;99.90
56428;DHT22;42331;53.578;9.760;2023-08-12T00:53:19;19.50;99.90
56428;DHT22;42331;53.578;9.760;2023-08-12T00:55:50;19.50;99.90
56428;DHT22;42331;53.578;9.760;2023-08-12T00:58:21;19.50;99.90
56428;DHT22;42331;53.578;9.760;2023-08-12T01:00:52;19.40;99.90
56428;DHT22;42331;53.578;9.760;2023-08-12T01:03:23;19.40;99.90
56428;DHT22;42331;53.578;9.760;2023-08-12T01:05:55;19.40;99.90
56428;DHT22;42331;53.578;9.760;2023-08-12T01:08:31;19.30;99.90
56428;DHT22;42331;53.578;9.760;2023-08-12T01:11:42;19.30;99.90
56428;DHT22;42331;53.578;9.760;2023-08-12T01:14:51;19.20;99.90
56428;DHT22;42331;53.578;9.760;2023-08-12T01:17:26;19.20;99.90
56428;DHT22;42331;53.578;9.760;2023-08-12T01:19:58;19.10;99.90
56428;DHT22;42331;53.578;9.760;2023-08-12T01:22:30;19.10;99.90
56428;DHT22;42331;53.578;9.760;2023-08-12T01:25:02;19.00;99.90
56428;DHT22;42331;53.578;9.760;2023-08-12T01:27:37;19.00;99.90
56428;DHT22;42331;53.578;9.760;2023-08-12T01:30:08;19.00;99.90
56428;DHT22;42331;53.578;9.760;2023-08-12T01:35:19;19.00;99.90
56428;DHT22;42331;53.578;9.760;2023-08-12T01:37:52;18.90;99.90
56428;DHT22;42331;53.578;9.760;2023-08-12T01:40:24;18.90;99.90
56428;DHT22;42331;53.578;9.760;2023-08-12T01:42:54;18.90;99.90
56428;DHT22;42331;53.578;9.760;2023-08-12T01:45:25;18.90;99.90
56428;DHT22;42331;53.578;9.760;2023-08-12T01:47:56;18.90;99.90
56428;DHT22;42331;53.578;9.760;2023-08-12T01:50:27;18.90;99.90
56428;DHT22;42331;53.578;9.760;2023-08-12T01:52:58;18.90;99.90
56428;DHT22;42331;53.578;9.760;2023-08-12T01:55:28;19.00;99.90
56428;DHT22;42331;53.578;9.760;2023-08-12T01:57:59;19.00;99.90
56428;DHT22;42331;53.578;9.760;2023-08-12T02:00:30;18.90;99.90
56428;DHT22;42331;53.578;9.760;2023-08-12T02:03:00;18.90;99.90
56428;DHT22;42331;53.578;9.760;2023-08-12T02:05:31;19.00;99.90
56428;DHT22;42331;53.578;9.760;2023-08-12T02:08:03;18.90;99.90
56428;DHT22;42331;53.578;9.760;2023-08-12T02:10:33;19.00;99.90
56428;DHT22;42331;53.578;9.760;2023-08-12T02:13:04;18.90;99.90
56428;DHT22;42331;53.578;9.760;2023-08-12T02:15:35;18.90;99.90
56428;DHT22;42331;53.578;9.760;2023-08-12T02:18:06;18.90;99.90
56428;DHT22;42331;53.578;9.760;2023-08-12T02:20:37;18.80;99.90
56428;DHT22;42331;53.578;9.760;2023-08-12T02:23:08;18.80;99.90
56428;DHT22;42331;53.578;9.760;2023-08-12T02:25:39;18.80;99.90
56428;DHT22;42331;53.578;9.760;2023-08-12T02:28:09;18.80;99.90
56428;DHT22;42331;53.578;9.760;2023-08-12T02:30:42;18.70;99.90
56428;DHT22;42331;53.578;9.760;2023-08-12T02:33:13;18.70;99.90
56428;DHT22;42331;53.578;9.760;2023-08-12T02:35:44;18.70;99.90
56428;DHT22;42331;53.578;9.760;2023-08-12T02:38:14;18.70;99.90
56428;DHT22;42331;53.578;9.760;2023-08-12T02:40:48;18.60;99.90
56428;DHT22;42331;53.578;9.760;2023-08-12T02:43:19;18.60;99.90
56428;DHT22;42331;53.578;9.760;2023-08-12T02:45:50;18.70;99.90
56428;DHT22;42331;53.578;9.760;2023-08-12T02:48:21;18.60;99.90
56428;DHT22;42331;53.578;9.760;2023-08-12T02:50:51;18.70;99.90
56428;DHT22;42331;53.578;9.760;2023-08-12T02:53:22;18.70;99.90
56428;DHT22;42331;53.578;9.760;2023-08-12T02:55:53;18.60;99.90
56428;DHT22;42331;53.578;9.760;2023-08-12T02:58:23;18.60;99.90
56428;DHT22;42331;53.578;9.760;2023-08-12T03:00:55;18.60;99.90
56428;DHT22;42331;53.578;9.760;2023-08-12T03:03:25;18.60;99.90
56428;DHT22;42331;53.578;9.760;2023-08-12T03:05:56;18.60;99.90
56428;DHT22;42331;53.578;9.760;2023-08-12T03:08:27;18.60;99.90
56428;DHT22;42331;53.578;9.760;2023-08-12T03:11:01;18.60;99.90
56428;DHT22;42331;53.578;9.760;2023-08-12T03:13:32;18.50;99.90
56428;DHT22;42331;53.578;9.760;2023-08-12T03:16:03;18.50;99.90
56428;DHT22;42331;53.578;9.760;2023-08-12T03:18:34;18.50;99.90
56428;DHT22;42331;53.578;9.760;2023-08-12T03:21:08;18.50;99.90
56428;DHT22;42331;53.578;9.760;2023-08-12T03:23:40;18.50;99.90
56428;DHT22;42331;53.578;9.760;2023-08-12T03:26:10;18.50;99.90
56428;DHT22;42331;53.578;9.760;2023-08-12T03:28:42;18.50;99.90
56428;DHT22;42331;53.578;9.760;2023-08-12T03:31:12;18.40;99.90
56428;DHT22;42331;53.578;9.760;2023-08-12T03:33:43;18.40;99.90
56428;DHT22;42331;53.578;9.760;2023-08-12T03:36:14;18.40;99.90
56428;DHT22;42331;53.578;9.760;2023-08-12T03:38:44;18.40;99.90
56428;DHT22;42331;53.578;9.760;2023-08-12T03:41:15;18.40;99.90
56428;DHT22;42331;53.578;9.760;2023-08-12T03:43:46;18.30;99.90
56428;DHT22;42331;53.578;9.760;2023-08-12T03:46:20;18.30;99.90
56428;DHT22;42331;53.578;9.760;2023-08-12T03:48:50;18.30;99.90
56428;DHT22;42331;53.578;9.760;2023-08-12T03:51:21;18.20;99.90
56428;DHT22;42331;53.578;9.760;2023-08-12T03:53:52;18.20;99.90
56428;DHT22;42331;53.578;9.760;2023-08-12T03:56:23;18.20;99.90
56428;DHT22;42331;53.578;9.760;2023-08-12T03:58:54;18.20;99.90
56428;DHT22;42331;53.578;9.760;2023-08-12T04:01:24;18.10;99.90
56428;DHT22;42331;53.578;9.760;2023-08-12T04:03:55;18.10;99.90
56428;DHT22;42331;53.578;9.760;2023-08-12T04:06:26;18.10;99.90
56428;DHT22;42331;53.578;9.760;2023-08-12T04:08:56;18.10;99.90
56428;DHT22;42331;53.578;9.760;2023-08-12T04:11:27;18.10;99.90
56428;DHT22;42331;53.578;9.760;2023-08-12T04:13:58;18.10;99.90
56428;DHT22;42331;53.578;9.760;2023-08-12T04:16:28;18.10;99.90
56428;DHT22;42331;53.578;9.760;2023-08-12T04:18:59;18.10;99.90
56428;DHT22;42331;53.578;9.760;2023-08-12T04:21:30;18.10;99.90
56428;DHT22;42331;53.578;9.760;2023-08-12T04:24:01;18.10;99.90
56428;DHT22;42331;53.578;9.760;2023-08-12T04:26:31;18.10;99.90
56428;DHT22;42331;53.578;9.760;2023-08-12T04:29:02;18.20;99.90
56428;DHT22;42331;53.578;9.760;2023-08-12T04:31:33;18.20;99.90
56428;DHT22;42331;53.578;9.760;2023-08-12T04:34:04;18.20;99.90
56428;DHT22;42331;53.578;9.760;2023-08-12T04:36:34;18.20;99.90
56428;DHT22;42331;53.578;9.760;2023-08-12T04:39:05;18.20;99.90
56428;DHT22;42331;53.578;9.760;2023-08-12T04:41:36;18.20;99.90
56428;DHT22;42331;53.578;9.760;2023-08-12T04:44:08;18.20;99.90
56428;DHT22;42331;53.578;9.760;2023-08-12T04:46:39;18.20;99.90
56428;DHT22;42331;53.578;9.760;2023-08-12T04:49:10;18.30;99.90
56428;DHT22;42331;53.578;9.760;2023-08-12T04:51:40;18.30;99.90
56428;DHT22;42331;53.578;9.760;2023-08-12T04:54:11;18.30;99.90
56428;DHT22;42331;53.578;9.760;2023-08-12T04:56:42;18.40;99.90
56428;DHT22;42331;53.578;9.760;2023-08-12T04:59:13;18.40;99.90
56428;DHT22;42331;53.578;9.760;2023-08-12T05:01:43;18.40;99.90
56428;DHT22;42331;53.578;9.760;2023-08-12T05:04:15;18.40;99.90
56428;DHT22;42331;53.578;9.760;2023-08-12T05:06:45;18.40;99.90
56428;DHT22;42331;53.578;9.760;2023-08-12T05:09:16;18.40;99.90
56428;DHT22;42331;53.578;9.760;2023-08-12T05:11:47;18.30;99.90
56428;DHT22;42331;53.578;9.760;2023-08-12T05:14:17;18.30;99.90
56428;DHT22;42331;53.578;9.760;2023-08-12T05:16:48;18.30;99.90
56428;DHT22;42331;53.578;9.760;2023-08-12T05:19:19;18.20;99.90
56428;DHT22;42331;53.578;9.760;2023-08-12T05:21:49;18.20;99.90
56428;DHT22;42331;53.578;9.760;2023-08-12T05:24:20;18.20;99.90
56428;DHT22;42331;53.578;9.760;2023-08-12T05:26:51;18.10;99.90
56428;DHT22;42331;53.578;9.760;2023-08-12T05:29:21;18.10;99.90
56428;DHT22;42331;53.578;9.760;2023-08-12T05:31:53;18.00;99.90
56428;DHT22;42331;53.578;9.760;2023-08-12T05:34:23;18.00;99.90
56428;DHT22;42331;53.578;9.760;2023-08-12T05:36:54;18.00;99.90
56428;DHT22;42331;53.578;9.760;2023-08-12T05:39:25;18.10;99.90
56428;DHT22;42331;53.578;9.760;2023-08-12T05:41:55;18.10;99.90
56428;DHT22;42331;53.578;9.760;2023-08-12T05:44:26;18.10;99.90
56428;DHT22;42331;53.578;9.760;2023-08-12T05:46:57;18.10;99.90
56428;DHT22;42331;53.578;9.760;2023-08-12T05:49:28;18.10;99.90
56428;DHT22;42331;53.578;9.760;2023-08-12T05:51:58;18.00;99.90
56428;DHT22;42331;53.578;9.760;2023-08-12T05:54:29;18.10;99.90
56428;DHT22;42331;53.578;9.760;2023-08-12T05:57:00;18.10;99.90
56428;DHT22;42331;53.578;9.760;2023-08-12T05:59:30;18.10;99.90
56428;DHT22;42331;53.578;9.760;2023-08-12T06:02:01;18.10;99.90
56428;DHT22;42331;53.578;9.760;2023-08-12T06:04:32;18.10;99.90
56428;DHT22;42331;53.578;9.760;2023-08-12T06:07:03;18.10;99.90
56428;DHT22;42331;53.578;9.760;2023-08-12T06:09:33;18.20;99.90
56428;DHT22;42331;53.578;9.760;2023-08-12T06:12:04;18.10;99.90
56428;DHT22;42331;53.578;9.760;2023-08-12T06:14:38;18.20;99.90
56428;DHT22;42331;53.578;9.760;2023-08-12T06:17:09;18.20;99.90
56428;DHT22;42331;53.578;9.760;2023-08-12T06:19:40;18.20;99.90
56428;DHT22;42331;53.578;9.760;2023-08-12T06:22:11;18.20;99.90
56428;DHT22;42331;53.578;9.760;2023-08-12T06:24:42;18.20;99.90
56428;DHT22;42331;53.578;9.760;2023-08-12T06:27:12;18.20;99.90
56428;DHT22;42331;53.578;9.760;2023-08-12T06:29:43;18.20;99.90
56428;DHT22;42331;53.578;9.760;2023-08-12T06:32:14;18.20;99.90
56428;DHT22;42331;53.578;9.760;2023-08-12T06:34:45;18.30;99.90
56428;DHT22;42331;53.578;9.760;2023-08-12T06:37:15;18.30;99.90
56428;DHT22;42331;53.578;9.760;2023-08-12T06:39:46;18.30;99.90
56428;DHT22;42331;53.578;9.760;2023-08-12T06:42:17;18.30;99.90
56428;DHT22;42331;53.578;9.760;2023-08-12T06:44:54;18.30;99.90
56428;DHT22;42331;53.578;9.760;2023-08-12T06:47:26;18.40;99.90
56428;DHT22;42331;53.578;9.760;2023-08-12T06:49:57;18.40;99.90
56428;DHT22;42331;53.578;9.760;2023-08-12T06:52:28;18.50;99.90
56428;DHT22;42331;53.578;9.760;2023-08-12T06:54:59;18.60;99.90
56428;DHT22;42331;53.578;9.760;2023-08-12T06:57:29;18.60;99.90
56428;DHT22;42331;53.578;9.760;2023-08-12T07:00:00;18.60;99.90
56428;DHT22;42331;53.578;9.760;2023-08-12T07:02:31;18.70;99.90
56428;DHT22;42331;53.578;9.760;2023-08-12T07:05:01;18.70;99.90
56428;DHT22;42331;53.578;9.760;2023-08-12T07:07:32;18.80;99.90
56428;DHT22;42331;53.578;9.760;2023-08-12T07:10:03;18.80;99.90
56428;DHT22;42331;53.578;9.760;2023-08-12T07:12:34;18.90;99.90
56428;DHT22;42331;53.578;9.760;2023-08-12T07:15:06;18.90;99.90
56428;DHT22;42331;53.578;9.760;2023-08-12T07:17:36;18.90;99.90
56428;DHT22;42331;53.578;9.760;2023-08-12T07:20:07;19.00;99.90
56428;DHT22;42331;53.578;9.760;2023-08-12T07:22:38;19.10;99.90
56428;DHT22;42331;53.578;9.760;2023-08-12T07:25:09;19.20;99.90
56428;DHT22;42331;53.578;9.760;2023-08-12T07:27:40;19.20;99.90
56428;DHT22;42331;53.578;9.760;2023-08-12T07:30:11;19.20;99.90
56428;DHT22;42331;53.578;9.760;2023-08-12T07:32:42;19.30;99.90
56428;DHT22;42331;53.578;9.760;2023-08-12T07:35:13;19.40;99.90
56428;DHT22;42331;53.578;9.760;2023-08-12T07:37:43;19.50;99.90
56428;DHT22;42331;53.578;9.760;2023-08-12T07:40:14;19.50;99.90
56428;DHT22;42331;53.578;9.760;2023-08-12T07:42:44;19.50;99.90
56428;DHT22;42331;53.578;9.760;2023-08-12T07:45:15;19.60;99.90
56428;DHT22;42331;53.578;9.760;2023-08-12T07:47:46;19.60;99.90
56428;DHT22;42331;53.578;9.760;2023-08-12T07:50:17;19.60;99.90
56428;DHT22;42331;53.578;9.760;2023-08-12T07:52:48;19.60;99.90
56428;DHT22;42331;53.578;9.760;2023-08-12T07:55:19;19.60;99.90
56428;DHT22;42331;53.578;9.760;2023-08-12T07:57:49;19.60;99.90
56428;DHT22;42331;53.578;9.760;2023-08-12T08:00:20;19.70;99.90
56428;DHT22;42331;53.578;9.760;2023-08-12T08:02:51;19.70;99.90
56428;DHT22;42331;53.578;9.760;2023-08-12T08:05:21;19.80;99.90
56428;DHT22;42331;53.578;9.760;2023-08-12T08:07:52;19.70;99.90
56428;DHT22;42331;53.578;9.760;2023-08-12T08:10:23;19.80;99.90
56428;DHT22;42331;53.578;9.760;2023-08-12T08:12:54;18.90;99.90
56428;DHT22;42331;53.578;9.760;2023-08-12T08:15:24;20.00;99.90
56428;DHT22;42331;53.578;9.760;2023-08-12T08:17:55;20.20;99.90
56428;DHT22;42331;53.578;9.760;2023-08-12T08:20:26;20.20;99.90
56428;DHT22;42331;53.578;9.760;2023-08-12T08:22:57;20.20;99.90
56428;DHT22;42331;53.578;9.760;2023-08-12T08:25:27;20.20;99.90
56428;DHT22;42331;53.578;9.760;2023-08-12T08:27:58;20.20;99.90
56428;DHT22;42331;53.578;9.760;2023-08-12T08:30:29;20.20;99.90
56428;DHT22;42331;53.578;9.760;2023-08-12T08:33:00;20.10;99.90
56428;DHT22;42331;53.578;9.760;2023-08-12T08:35:30;20.10;99.90
56428;DHT22;42331;53.578;9.760;2023-08-12T08:38:01;20.10;99.90
56428;DHT22;42331;53.578;9.760;2023-08-12T08:40:32;20.10;99.90
56428;DHT22;42331;53.578;9.760;2023-08-12T08:43:04;20.10;99.90
56428;DHT22;42331;53.578;9.760;2023-08-12T08:45:38;20.00;99.90
56428;DHT22;42331;53.578;9.760;2023-08-12T08:48:10;20.10;99.90
56428;DHT22;42331;53.578;9.760;2023-08-12T08:50:42;20.10;99.90
56428;DHT22;42331;53.578;9.760;2023-08-12T08:53:14;20.10;99.90
56428;DHT22;42331;53.578;9.760;2023-08-12T08:55:46;20.10;99.90
56428;DHT22;42331;53.578;9.760;2023-08-12T08:58:18;20.10;99.90
56428;DHT22;42331;53.578;9.760;2023-08-12T09:00:49;20.20;99.90
56428;DHT22;42331;53.578;9.760;2023-08-12T09:03:20;20.20;99.90
56428;DHT22;42331;53.578;9.760;2023-08-12T09:08:24;20.20;99.90
56428;DHT22;42331;53.578;9.760;2023-08-12T09:10:58;20.30;99.90
56428;DHT22;42331;53.578;9.760;2023-08-12T09:13:30;20.40;99.90
56428;DHT22;42331;53.578;9.760;2023-08-12T09:16:00;20.40;99.90
56428;DHT22;42331;53.578;9.760;2023-08-12T09:18:31;20.40;99.90
56428;DHT22;42331;53.578;9.760;2023-08-12T09:21:03;20.40;99.90
56428;DHT22;42331;53.578;9.760;2023-08-12T09:23:41;20.30;99.90
56428;DHT22;42331;53.578;9.760;2023-08-12T09:26:19;20.30;99.90
56428;DHT22;42331;53.578;9.760;2023-08-12T09:28:51;20.10;99.90
56428;DHT22;42331;53.578;9.760;2023-08-12T09:31:26;20.10;99.90
56428;DHT22;42331;53.578;9.760;2023-08-12T09:34:04;20.00;99.90
56428;DHT22;42331;53.578;9.760;2023-08-12T09:36:35;20.00;99.90
56428;DHT22;42331;53.578;9.760;2023-08-12T09:39:07;19.90;99.90
56428;DHT22;42331;53.578;9.760;2023-08-12T09:41:39;19.90;99.90
56428;DHT22;42331;53.578;9.760;2023-08-12T09:44:10;19.90;99.90
56428;DHT22;42331;53.578;9.760;2023-08-12T09:46:40;19.90;99.90
56428;DHT22;42331;53.578;9.760;2023-08-12T09:49:11;19.90;99.90
56428;DHT22;42331;53.578;9.760;2023-08-12T09:51:41;19.90;99.90
56428;DHT22;42331;53.578;9.760;2023-08-12T09:54:14;19.90;99.90
56428;DHT22;42331;53.578;9.760;2023-08-12T09:56:47;19.80;99.90
56428;DHT22;42331;53.578;9.760;2023-08-12T09:59:19;19.90;99.90
56428;DHT22;42331;53.578;9.760;2023-08-12T10:01:53;19.80;99.90
56428;DHT22;42331;53.578;9.760;2023-08-12T10:04:27;19.80;99.90
56428;DHT22;42331;53.578;9.760;2023-08-12T10:06:59;19.80;99.90
56428;DHT22;42331;53.578;9.760;2023-08-12T10:09:32;19.80;99.90
56428;DHT22;42331;53.578;9.760;2023-08-12T10:12:04;19.80;99.90
56428;DHT22;42331;53.578;9.760;2023-08-12T10:14:35;19.80;99.90
56428;DHT22;42331;53.578;9.760;2023-08-12T10:17:06;19.80;99.90
56428;DHT22;42331;53.578;9.760;2023-08-12T10:19:37;19.80;99.90
56428;DHT22;42331;53.578;9.760;2023-08-12T10:22:08;19.80;99.90
56428;DHT22;42331;53.578;9.760;2023-08-12T10:24:42;19.80;99.90
56428;DHT22;42331;53.578;9.760;2023-08-12T10:27:14;19.90;99.90
56428;DHT22;42331;53.578;9.760;2023-08-12T10:29:46;19.90;99.90
56428;DHT22;42331;53.578;9.760;2023-08-12T10:32:17;19.90;99.90
56428;DHT22;42331;53.578;9.760;2023-08-12T10:34:54;19.90;99.90
56428;DHT22;42331;53.578;9.760;2023-08-12T10:37:26;19.90;99.90
56428;DHT22;42331;53.578;9.760;2023-08-12T10:39:57;19.90;99.90
56428;DHT22;42331;53.578;9.760;2023-08-12T10:42:45;20.00;99.90
56428;DHT22;42331;53.578;9.760;2023-08-12T10:45:17;20.00;99.90
56428;DHT22;42331;53.578;9.760;2023-08-12T10:48:09;20.00;99.90
56428;DHT22;42331;53.578;9.760;2023-08-12T10:53:32;19.90;99.90
56428;DHT22;42331;53.578;9.760;2023-08-12T10:56:04;19.80;99.90
56428;DHT22;42331;53.578;9.760;2023-08-12T10:58:41;19.80;99.90
56428;DHT22;42331;53.578;9.760;2023-08-12T11:01:18;19.70;99.90
56428;DHT22;42331;53.578;9.760;2023-08-12T11:03:50;19.70;99.90
56428;DHT22;42331;53.578;9.760;2023-08-12T11:06:20;19.80;99.90
56428;DHT22;42331;53.578;9.760;2023-08-12T11:08:56;19.80;99.90
56428;DHT22;42331;53.578;9.760;2023-08-12T11:11:27;19.90;99.90
56428;DHT22;42331;53.578;9.760;2023-08-12T11:13:58;19.80;99.90
56428;DHT22;42331;53.578;9.760;2023-08-12T11:16:36;19.70;99.90
56428;DHT22;42331;53.578;9.760;2023-08-12T11:19:07;19.70;99.90
56428;DHT22;42331;53.578;9.760;2023-08-12T11:21:38;19.70;99.90
56428;DHT22;42331;53.578;9.760;2023-08-12T11:24:10;19.70;99.90
56428;DHT22;42331;53.578;9.760;2023-08-12T11:26:41;19.70;99.90
56428;DHT22;42331;53.578;9.760;2023-08-12T11:29:12;19.70;99.90
56428;DHT22;42331;53.578;9.760;2023-08-12T11:31:43;19.70;99.90
56428;DHT22;42331;53.578;9.760;2023-08-12T11:34:15;19.70;99.90
56428;DHT22;42331;53.578;9.760;2023-08-12T11:36:46;19.70;99.90
56428;DHT22;42331;53.578;9.760;2023-08-12T11:39:17;19.60;99.90
56428;DHT22;42331;53.578;9.760;2023-08-12T11:41:48;19.60;99.90
56428;DHT22;42331;53.578;9.760;2023-08-12T11:44:24;19.60;99.90
56428;DHT22;42331;53.578;9.760;2023-08-12T11:46:54;19.50;99.90
56428;DHT22;42331;53.578;9.760;2023-08-12T11:49:25;19.50;99.90
56428;DHT22;42331;53.578;9.760;2023-08-12T11:51:56;19.50;99.90
56428;DHT22;42331;53.578;9.760;2023-08-12T11:54:26;19.50;99.90
56428;DHT22;42331;53.578;9.760;2023-08-12T11:56:58;19.50;99.90
56428;DHT22;42331;53.578;9.760;2023-08-12T11:59:30;19.40;99.90
56428;DHT22;42331;53.578;9.760;2023-08-12T12:02:02;19.50;99.90
56428;DHT22;42331;53.578;9.760;2023-08-12T12:04:33;19.50;99.90
56428;DHT22;42331;53.578;9.760;2023-08-12T12:07:25;19.50;99.90
56428;DHT22;42331;53.578;9.760;2023-08-12T12:10:01;19.40;99.90
56428;DHT22;42331;53.578;9.760;2023-08-12T12:12:35;19.40;99.90
56428;DHT22;42331;53.578;9.760;2023-08-12T12:15:06;19.40;99.90
56428;DHT22;42331;53.578;9.760;2023-08-12T12:17:40;19.40;99.90
56428;DHT22;42331;53.578;9.760;2023-08-12T12:20:11;19.40;99.90
56428;DHT22;42331;53.578;9.760;2023-08-12T12:22:43;19.40;99.90
56428;DHT22;42331;53.578;9.760;2023-08-12T12:25:16;19.40;99.90
56428;DHT22;42331;53.578;9.760;2023-08-12T12:27:49;19.50;99.90
56428;DHT22;42331;53.578;9.760;2023-08-12T12:30:20;19.50;99.90
56428;DHT22;42331;53.578;9.760;2023-08-12T12:32:50;19.50;99.90
56428;DHT22;42331;53.578;9.760;2023-08-12T12:35:22;19.70;99.90
56428;DHT22;42331;53.578;9.760;2023-08-12T12:37:53;19.70;99.90
56428;DHT22;42331;53.578;9.760;2023-08-12T12:40:23;19.60;99.90
56428;DHT22;42331;53.578;9.760;2023-08-12T12:42:54;19.70;99.90
56428;DHT22;42331;53.578;9.760;2023-08-12T12:45:25;19.70;99.90
56428;DHT22;42331;53.578;9.760;2023-08-12T12:47:56;19.70;99.90
56428;DHT22;42331;53.578;9.760;2023-08-12T12:50:26;19.70;99.90
56428;DHT22;42331;53.578;9.760;2023-08-12T12:52:57;19.70;99.90
56428;DHT22;42331;53.578;9.760;2023-08-12T12:55:27;19.60;99.90
56428;DHT22;42331;53.578;9.760;2023-08-12T12:57:58;19.70;99.90
56428;DHT22;42331;53.578;9.760;2023-08-12T13:00:29;19.70;99.90
56428;DHT22;42331;53.578;9.760;2023-08-12T13:02:59;19.70;99.90
56428;DHT22;42331;53.578;9.760;2023-08-12T13:05:30;19.70;99.90
56428;DHT22;42331;53.578;9.760;2023-08-12T13:08:01;19.80;99.90
56428;DHT22;42331;53.578;9.760;2023-08-12T13:10:32;19.80;99.90
56428;DHT22;42331;53.578;9.760;2023-08-12T13:13:02;19.90;99.90
56428;DHT22;42331;53.578;9.760;2023-08-12T13:15:34;20.10;99.90
56428;DHT22;42331;53.578;9.760;2023-08-12T13:18:04;20.10;99.90
56428;DHT22;42331;53.578;9.760;2023-08-12T13:20:36;20.20;99.90
56428;DHT22;42331;53.578;9.760;2023-08-12T13:23:07;20.20;99.90
56428;DHT22;42331;53.578;9.760;2023-08-12T13:25:38;20.10;99.90
56428;DHT22;42331;53.578;9.760;2023-08-12T13:28:08;20.10;99.90
56428;DHT22;42331;53.578;9.760;2023-08-12T13:30:39;20.10;99.90
56428;DHT22;42331;53.578;9.760;2023-08-12T13:33:10;20.20;99.90
56428;DHT22;42331;53.578;9.760;2023-08-12T13:35:41;20.20;99.90
56428;DHT22;42331;53.578;9.760;2023-08-12T13:38:12;20.20;99.90
56428;DHT22;42331;53.578;9.760;2023-08-12T13:40:43;20.10;99.90
56428;DHT22;42331;53.578;9.760;2023-08-12T13:43:13;20.20;99.90
56428;DHT22;42331;53.578;9.760;2023-08-12T13:45:44;20.10;99.90
56428;DHT22;42331;53.578;9.760;2023-08-12T13:48:15;20.10;99.90
56428;DHT22;42331;53.578;9.760;2023-08-12T13:50:45;20.10;99.90
56428;DHT22;42331;53.578;9.760;2023-08-12T13:53:19;20.00;99.90
56428;DHT22;42331;53.578;9.760;2023-08-12T13:55:50;19.90;99.90
56428;DHT22;42331;53.578;9.760;2023-08-12T13:58:21;19.90;99.90
56428;DHT22;42331;53.578;9.760;2023-08-12T14:00:52;19.90;99.90
56428;DHT22;42331;53.578;9.760;2023-08-12T14:03:22;19.90;99.90
56428;DHT22;42331;53.578;9.760;2023-08-12T14:05:53;20.00;99.90
56428;DHT22;42331;53.578;9.760;2023-08-12T14:08:24;20.00;99.90
56428;DHT22;42331;53.578;9.760;2023-08-12T14:10:55;19.90;99.90
56428;DHT22;42331;53.578;9.760;2023-08-12T14:13:25;20.00;99.90
56428;DHT22;42331;53.578;9.760;2023-08-12T14:15:56;20.00;99.90
56428;DHT22;42331;53.578;9.760;2023-08-12T14:18:27;20.00;99.90
56428;DHT22;42331;53.578;9.760;2023-08-12T14:20:57;19.90;99.90
56428;DHT22;42331;53.578;9.760;2023-08-12T14:23:28;20.00;99.90
56428;DHT22;42331;53.578;9.760;2023-08-12T14:25:58;20.10;99.90
56428;DHT22;42331;53.578;9.760;2023-08-12T14:28:29;20.10;99.90
56428;DHT22;42331;53.578;9.760;2023-08-12T14:31:00;20.20;99.90
56428;DHT22;42331;53.578;9.760;2023-08-12T14:33:31;20.30;99.90
56428;DHT22;42331;53.578;9.760;2023-08-12T14:36:01;20.20;99.90
56428;DHT22;42331;53.578;9.760;2023-08-12T14:38:32;20.20;99.90
56428;DHT22;42331;53.578;9.760;2023-08-12T14:41:03;20.10;99.90
56428;DHT22;42331;53.578;9.760;2023-08-12T14:43:34;20.10;99.90
56428;DHT22;42331;53.578;9.760;2023-08-12T14:46:04;20.10;99.90
56428;DHT22;42331;53.578;9.760;2023-08-12T14:48:35;20.10;99.90
56428;DHT22;42331;53.578;9.760;2023-08-12T14:51:06;20.10;99.90
56428;DHT22;42331;53.578;9.760;2023-08-12T14:53:37;20.10;99.90
56428;DHT22;42331;53.578;9.760;2023-08-12T14:56:07;20.10;99.90
56428;DHT22;42331;53.578;9.760;2023-08-12T14:58:38;20.10;99.90
56428;DHT22;42331;53.578;9.760;2023-08-12T15:01:09;20.10;99.90
56428;DHT22;42331;53.578;9.760;2023-08-12T15:03:39;20.10;99.90
56428;DHT22;42331;53.578;9.760;2023-08-12T15:06:10;20.10;99.90
56428;DHT22;42331;53.578;9.760;2023-08-12T15:08:41;20.20;99.90
56428;DHT22;42331;53.578;9.760;2023-08-12T15:11:12;20.20;99.90
56428;DHT22;42331;53.578;9.760;2023-08-12T15:13:42;20.30;99.90
56428;DHT22;42331;53.578;9.760;2023-08-12T15:16:13;20.30;99.90
56428;DHT22;42331;53.578;9.760;2023-08-12T15:18:44;20.30;99.90
56428;DHT22;42331;53.578;9.760;2023-08-12T15:21:14;20.20;99.90
56428;DHT22;42331;53.578;9.760;2023-08-12T15:23:46;20.20;99.90
56428;DHT22;42331;53.578;9.760;2023-08-12T15:26:18;20.10;99.90
56428;DHT22;42331;53.578;9.760;2023-08-12T15:28:48;20.00;99.90
56428;DHT22;42331;53.578;9.760;2023-08-12T15:31:19;20.10;99.90
56428;DHT22;42331;53.578;9.760;2023-08-12T15:33:50;20.00;99.90
56428;DHT22;42331;53.578;9.760;2023-08-12T15:36:20;20.10;99.90
56428;DHT22;42331;53.578;9.760;2023-08-12T15:38:51;20.20;99.90
56428;DHT22;42331;53.578;9.760;2023-08-12T15:41:22;20.20;99.90
56428;DHT22;42331;53.578;9.760;2023-08-12T15:43:52;20.30;99.90
56428;DHT22;42331;53.578;9.760;2023-08-12T15:46:23;20.30;99.90
56428;DHT22;42331;53.578;9.760;2023-08-12T15:48:54;20.40;99.90
56428;DHT22;42331;53.578;9.760;2023-08-12T15:51:24;20.40;99.90
56428;DHT22;42331;53.578;9.760;2023-08-12T15:53:55;20.40;99.90
56428;DHT22;42331;53.578;9.760;2023-08-12T15:56:27;20.40;99.90
56428;DHT22;42331;53.578;9.760;2023-08-12T15:58:58;20.40;99.90
56428;DHT22;42331;53.578;9.760;2023-08-12T16:01:29;20.40;99.90
56428;DHT22;42331;53.578;9.760;2023-08-12T16:04:01;20.40;99.90